Lusby, Maryland
Current Conditions -  °F | °C
As of 3:01 PM on Sunday 23 Nov 2014 (Local Time) from K2W6 Reporting Station
Clear Clear  
Wind Chill: 57°   Ceiling: Unl
Heat Index: 57°   Visibility: 10mi
Dew Point: 45°   Wind: 5mph
Humidity: 63%   Direction: 140°SE
Pressure: 30.13"   Gusts: NA
Location:  38.43°N, 76.47°W
Report Text: K2W6 232001Z AUTO 14004KT 10SM CLR 14/07 A3013 RMK AO1
Loading
Personal Weather Stations






























Interactive Weather Map New forecast layout! Learn more

10-Day Weather Forecast

Advertisements
Track Severe Weather on mobile